Terminal Aerodrome Forecast
Issued by NWS

Home | Current Version | Previous Version | Text Only | Print | Product List | Glossary On
Versions: 1 2 3 4 5 6 7 8 9 10 11 12 13 14 15 16 17 18 19 20 21 22 23 24 25 26
000
FTUS45 KCYS 300500
TAFAIA
TAF
KAIA 300535Z 3006/3106 07006KT P6SM SCT080 OVC100
     FM300900 05005KT P6SM BKN040
     FM301500 26005KT P6SM BKN060
     FM310200 22006KT P6SM SCT080=

USA.gov is the U.S. government's official web portal to all federal, state and local government web resources and services.